Time;durP1;ratioP1;P1;durP2;ratioP2;P2;SDS_P1;SDS_P2;PMS_P1;PMS_P2;Temp;Humidity;BMP_temperature;BMP_pressure;BME280_temperature;BME280_humidity;BME280_pressure;Samples;Min_cycle;Max_cycle;Signal;HPM_P1;HPM_P2
2022/06/18 00:02:58;;;;;;;;;;;;;;;16.36;75.18;96144.00;6250307;28;19925;-69
2022/06/18 00:05:59;;;;;;;;;;;;;;;16.49;74.72;96130.34;6250695;28;19921;-69
2022/06/18 00:09:00;;;;;;;;;;;;;;;16.54;75.03;96126.22;6250346;28;19925;-68
2022/06/18 00:15:36;;;;;;;;;;;;;;;16.73;74.38;96108.41;6249852;28;20012;-68
2022/06/18 00:18:37;;;;;;;;;;;;;;;16.79;74.46;96113.16;6249730;28;19943;-68
2022/06/18 00:21:38;;;;;;;;;;;;;;;16.84;74.44;96116.16;6250296;28;19917;-69
2022/06/18 00:24:42;;;;;;;;;;;;;;;16.92;74.47;96107.41;6249856;28;19927;-69
2022/06/18 00:27:46;;;;;;;;;;;;;;;17.01;73.88;96107.31;6249572;28;19917;-68
2022/06/18 00:30:48;;;;;;;;;;;;;;;17.09;74.58;96103.84;6248158;28;19928;-67
2022/06/18 00:33:49;;;;;;;;;;;;;;;17.20;74.26;96113.38;6249556;28;20399;-67
2022/06/18 00:36:50;;;;;;;;;;;;;;;17.25;73.86;96103.09;6249786;28;20010;-69
2022/06/18 00:39:54;;;;;;;;;;;;;;;17.33;74.47;96097.81;6249542;28;19925;-68
2022/06/18 00:43:01;;;;;;;;;;;;;;;17.45;74.54;96099.19;6249263;28;19920;-68
2022/06/18 00:46:12;;;;;;;;;;;;;;;17.59;73.51;96099.56;6249158;28;19928;-67
2022/06/18 00:49:21;;;;;;;;;;;;;;;17.61;73.09;96098.41;6249175;28;20358;-68
2022/06/18 00:52:24;;;;;;;;;;;;;;;17.63;73.20;96101.72;6249123;28;20027;-69
2022/06/18 00:55:40;;;;;;;;;;;;;;;17.65;73.67;96109.56;6248926;28;19921;-67
2022/06/18 00:58:51;;;;;;;;;;;;;;;17.71;72.73;96114.22;6264438;28;19971;-67
2022/06/18 01:01:58;;;;;;;;;;;;;;;17.71;72.67;96119.53;6248781;28;19920;-67
2022/06/18 01:04:59;;;;;;;;;;;;;;;17.69;73.43;96126.84;6249013;28;19963;-67
2022/06/18 01:08:05;;;;;;;;;;;;;;;17.75;73.07;96131.53;6248578;28;19925;-67
2022/06/18 01:11:09;;;;;;;;;;;;;;;17.85;72.53;96132.25;6249047;28;20007;-68
2022/06/18 01:14:17;;;;;;;;;;;;;;;18.00;72.42;96139.59;6249011;28;19920;-68
2022/06/18 01:17:22;;;;;;;;;;;;;;;18.20;71.91;96146.28;6247108;28;19921;-67
2022/06/18 01:20:28;;;;;;;;;;;;;;;18.41;71.08;96121.84;6248563;28;19920;-67
2022/06/18 01:23:48;;;;;;;;;;;;;;;18.60;71.02;96131.34;6247076;28;19917;-67
2022/06/18 01:26:53;;;;;;;;;;;;;;;18.73;70.84;96130.81;6247062;28;20409;-67
2022/06/18 01:29:54;;;;;;;;;;;;;;;18.79;70.78;96136.31;6247966;28;19917;-67
2022/06/18 01:32:57;;;;;;;;;;;;;;;18.87;70.72;96137.31;6248664;28;20797;-68
2022/06/18 01:36:01;;;;;;;;;;;;;;;18.97;70.49;96132.66;6248588;28;19920;-68
2022/06/18 01:39:10;;;;;;;;;;;;;;;19.07;70.13;96127.94;6248602;28;20287;-67
2022/06/18 01:42:17;;;;;;;;;;;;;;;19.15;69.79;96130.59;6247883;28;19928;-67
2022/06/18 01:45:23;;;;;;;;;;;;;;;19.25;69.70;96136.59;6248637;28;19920;-66
2022/06/18 01:48:28;;;;;;;;;;;;;;;19.36;69.02;96131.88;6248156;28;19998;-67
2022/06/18 01:51:36;;;;;;;;;;;;;;;19.44;68.79;96126.50;6247965;28;19920;-67
2022/06/18 01:54:48;;;;;;;;;;;;;;;19.41;68.93;96125.00;6247542;28;19921;-68
2022/06/18 01:57:54;;;;;;;;;;;;;;;19.45;68.67;96125.50;6247395;28;19963;-67
2022/06/18 02:00:59;;;;;;;;;;;;;;;19.52;67.24;96126.47;6248019;28;19921;-68
2022/06/18 02:04:02;;;;;;;;;;;;;;;19.25;67.44;96114.41;6246979;28;19921;-67
2022/06/18 02:07:05;;;;;;;;;;;;;;;19.21;67.87;96108.56;6247317;28;19964;-66
2022/06/18 02:10:12;;;;;;;;;;;;;;;19.35;67.49;96103.53;6247313;28;19921;-67
2022/06/18 02:13:14;;;;;;;;;;;;;;;19.48;67.10;96109.16;6247505;28;19928;-67
2022/06/18 02:16:21;;;;;;;;;;;;;;;19.57;66.86;96101.94;6246989;28;19921;-66
2022/06/18 02:19:24;;;;;;;;;;;;;;;19.46;66.70;96089.81;6247611;28;20392;-67
2022/06/18 02:22:34;;;;;;;;;;;;;;;19.46;66.96;96084.47;6246874;28;19921;-67
2022/06/18 02:25:35;;;;;;;;;;;;;;;19.37;67.29;96082.88;6246931;28;20015;-67
2022/06/18 02:28:40;;;;;;;;;;;;;;;19.39;67.09;96088.84;6246815;28;19928;-67
2022/06/18 02:31:45;;;;;;;;;;;;;;;19.47;67.06;96099.47;6245413;28;20026;-67
2022/06/18 02:34:47;;;;;;;;;;;;;;;19.61;66.94;96082.72;6247032;28;20007;-66
2022/06/18 02:37:50;;;;;;;;;;;;;;;19.80;66.53;96086.00;6246947;28;19921;-67
2022/06/18 02:40:54;;;;;;;;;;;;;;;20.05;66.45;96089.34;6246393;28;19921;-67
2022/06/18 02:43:57;;;;;;;;;;;;;;;20.41;65.89;96078.88;6246947;28;19994;-67
2022/06/18 02:47:00;;;;;;;;;;;;;;;20.76;64.78;96095.31;6246701;28;19920;-67
2022/06/18 02:50:08;;;;;;;;;;;;;;;21.01;64.36;96095.88;6246431;28;19921;-67
2022/06/18 02:53:12;;;;;;;;;;;;;;;21.15;64.38;96103.09;6245684;28;19921;-66
2022/06/18 02:56:18;;;;;;;;;;;;;;;21.19;64.61;96106.22;6246193;28;19944;-67
2022/06/18 02:59:19;;;;;;;;;;;;;;;21.24;64.33;96114.53;6246850;28;20300;-68
2022/06/18 03:02:20;;;;;;;;;;;;;;;21.26;64.17;96104.47;6246228;28;20059;-67
2022/06/18 03:05:23;;;;;;;;;;;;;;;21.30;64.10;96101.22;6245976;28;19964;-68
2022/06/18 03:08:30;;;;;;;;;;;;;;;21.41;63.85;96108.00;6245952;28;19921;-67
2022/06/18 03:14:57;;;;;;;;;;;;;;;21.77;63.17;96085.78;6246033;28;19921;-67
2022/06/18 03:17:58;;;;;;;;;;;;;;;22.03;62.70;96095.13;6245816;28;19994;-68
2022/06/18 03:21:09;;;;;;;;;;;;;;;22.31;61.85;96101.44;6245841;28;19920;-68
2022/06/18 03:24:14;;;;;;;;;;;;;;;22.66;61.54;96100.69;6245619;28;19921;-67
2022/06/18 03:27:16;;;;;;;;;;;;;;;22.99;60.81;96093.75;6245413;28;19928;-66
2022/06/18 03:30:18;;;;;;;;;;;;;;;23.31;60.51;96104.88;6246134;28;19921;-68
2022/06/18 03:33:23;;;;;;;;;;;;;;;23.69;59.19;96107.13;6245628;28;19929;-67
2022/06/18 03:36:29;;;;;;;;;;;;;;;23.97;58.35;96104.38;6245565;28;19963;-67
2022/06/18 03:39:35;;;;;;;;;;;;;;;24.18;58.05;96109.63;6245451;28;19921;-67
2022/06/18 03:42:38;;;;;;;;;;;;;;;24.39;57.28;96115.84;6245467;28;19921;-67
2022/06/18 03:45:42;;;;;;;;;;;;;;;24.40;56.80;96120.19;6245384;28;19929;-67
2022/06/18 03:48:43;;;;;;;;;;;;;;;24.41;56.83;96127.22;6245589;28;20388;-67
2022/06/18 03:51:47;;;;;;;;;;;;;;;24.42;56.83;96118.13;6243900;28;19921;-67
2022/06/18 03:54:50;;;;;;;;;;;;;;;24.38;56.63;96119.56;6245420;28;20312;-67
2022/06/18 03:57:55;;;;;;;;;;;;;;;24.45;55.68;96117.75;6245303;28;19921;-67
2022/06/18 04:00:58;;;;;;;;;;;;;;;24.49;54.97;96123.56;6245255;28;19921;-67
2022/06/18 04:04:01;;;;;;;;;;;;;;;24.55;52.98;96128.13;6245273;28;20299;-67
2022/06/18 04:07:03;;;;;;;;;;;;;;;24.37;51.95;96128.66;6250398;28;19921;-68
2022/06/18 04:10:06;;;;;;;;;;;;;;;24.29;52.00;96123.47;6250324;28;20477;-67
2022/06/18 04:13:09;;;;;;;;;;;;;;;24.35;51.63;96128.06;6249707;28;19921;-67
2022/06/18 04:16:15;;;;;;;;;;;;;;;24.55;50.71;96130.81;6249630;28;19928;-67
2022/06/18 04:19:18;;;;;;;;;;;;;;;24.64;51.02;96132.25;6249861;28;19927;-67
2022/06/18 04:22:19;;;;;;;;;;;;;;;25.13;49.60;96135.56;6249563;28;19920;-67
2022/06/18 04:25:23;;;;;;;;;;;;;;;25.36;48.50;96130.56;6249588;28;19920;-67
2022/06/18 04:28:24;;;;;;;;;;;;;;;25.38;48.16;96138.44;6249368;28;19932;-68
2022/06/18 04:31:25;;;;;;;;;;;;;;;25.22;49.07;96134.31;6249334;28;19925;-67
2022/06/18 04:34:29;;;;;;;;;;;;;;;25.45;48.60;96134.72;6247801;28;19924;-66
2022/06/18 04:37:33;;;;;;;;;;;;;;;25.87;48.02;96127.13;6249056;28;19921;-68
2022/06/18 04:40:34;;;;;;;;;;;;;;;26.39;46.69;96129.78;6249257;28;19995;-67
2022/06/18 04:43:37;;;;;;;;;;;;;;;26.80;44.89;96125.78;6249345;28;19944;-67
2022/06/18 04:46:41;;;;;;;;;;;;;;;26.98;44.76;96122.31;6249318;28;20282;-67
2022/06/18 04:49:44;;;;;;;;;;;;;;;28.29;42.93;96128.41;6248751;28;19921;-67
2022/06/18 04:52:45;;;;;;;;;;;;;;;29.98;39.71;96142.25;6249362;28;20057;-67
2022/06/18 04:55:47;;;;;;;;;;;;;;;30.57;38.70;96149.38;6248589;28;19920;-67
2022/06/18 04:58:50;;;;;;;;;;;;;;;31.29;37.58;96151.44;6248515;28;19921;-67
2022/06/18 05:02:03;;;;;;;;;;;;;;;31.43;37.51;96141.91;6248593;28;19917;-67
2022/06/18 05:05:10;;;;;;;;;;;;;;;30.52;37.75;96138.44;6248251;28;19920;-67
2022/06/18 05:08:14;;;;;;;;;;;;;;;29.94;38.88;96130.22;6248379;28;19917;-67
2022/06/18 05:11:15;;;;;;;;;;;;;;;29.65;40.13;96126.66;6248789;28;19921;-68
2022/06/18 05:14:16;;;;;;;;;;;;;;;29.81;39.89;96135.94;6248311;28;19924;-68
2022/06/18 05:17:22;;;;;;;;;;;;;;;32.06;36.36;96133.50;6247741;28;20016;-67
2022/06/18 05:20:23;;;;;;;;;;;;;;;32.75;35.78;96135.63;6249332;28;19927;-68
2022/06/18 05:23:27;;;;;;;;;;;;;;;33.77;34.55;96136.44;6247864;28;19929;-68
2022/06/18 05:26:33;;;;;;;;;;;;;;;35.60;30.83;96135.22;6248006;28;19921;-68
2022/06/18 05:29:36;;;;;;;;;;;;;;;37.19;29.46;96137.19;6247770;28;19921;-69
2022/06/18 05:32:41;;;;;;;;;;;;;;;37.67;29.33;96131.81;6247921;28;20308;-68
2022/06/18 05:35:44;;;;;;;;;;;;;;;38.34;28.88;96140.94;6248353;28;19935;-68
2022/06/18 05:38:45;;;;;;;;;;;;;;;39.06;27.69;96139.94;6247948;28;20384;-67
2022/06/18 05:41:51;;;;;;;;;;;;;;;38.36;28.50;96130.47;6246911;28;20310;-67
2022/06/18 05:44:55;;;;;;;;;;;;;;;36.65;29.34;96122.50;6247730;28;19921;-68
2022/06/18 05:47:59;;;;;;;;;;;;;;;35.31;30.43;96119.38;6247691;28;20023;-68
2022/06/18 05:51:00;;;;;;;;;;;;;;;35.51;30.09;96121.25;6246376;28;20289;-68
2022/06/18 05:54:01;;;;;;;;;;;;;;;36.15;29.16;96118.91;6247274;28;20382;-68
2022/06/18 05:57:02;;;;;;;;;;;;;;;36.17;28.98;96131.22;6246834;28;19928;-68
2022/06/18 06:00:06;;;;;;;;;;;;;;;35.18;28.27;96122.66;6247168;28;19928;-66
2022/06/18 06:03:11;;;;;;;;;;;;;;;33.93;29.56;96134.63;6262178;28;19928;-68
2022/06/18 06:06:14;;;;;;;;;;;;;;;32.34;32.03;96118.88;6247288;28;19921;-66
2022/06/18 06:12:39;;;;;;;;;;;;;;;31.64;33.44;96113.09;6247316;28;19975;-68
2022/06/18 06:15:43;;;;;;;;;;;;;;;31.44;33.76;96110.09;6246829;28;19921;-67
2022/06/18 06:18:44;;;;;;;;;;;;;;;31.06;33.86;96109.78;6245628;28;20381;-68
2022/06/18 06:21:45;;;;;;;;;;;;;;;30.54;34.58;96111.84;6247454;28;20312;-67
2022/06/18 06:24:48;;;;;;;;;;;;;;;29.88;35.90;96104.06;6247284;28;20348;-67
2022/06/18 06:27:54;;;;;;;;;;;;;;;29.17;36.95;96097.09;6245793;28;19945;-68
2022/06/18 06:30:56;;;;;;;;;;;;;;;28.98;37.47;96099.03;6246446;28;19920;-68
2022/06/18 06:33:59;;;;;;;;;;;;;;;28.84;37.65;96103.84;6246069;28;20863;-67
2022/06/18 06:37:00;;;;;;;;;;;;;;;28.82;37.60;96106.00;6246243;28;20415;-67
2022/06/18 06:40:04;;;;;;;;;;;;;;;28.94;37.77;96103.28;6246558;28;20007;-67
2022/06/18 06:43:15;;;;;;;;;;;;;;;28.86;37.94;96112.56;6246212;28;19921;-66
2022/06/18 06:46:19;;;;;;;;;;;;;;;29.72;36.61;96105.66;6246244;28;19928;-67
2022/06/18 06:49:20;;;;;;;;;;;;;;;29.99;36.19;96108.63;6246042;28;19921;-68
2022/06/18 06:52:26;;;;;;;;;;;;;;;29.72;36.72;96110.25;6246338;28;19925;-67
2022/06/18 06:58:53;;;;;;;;;;;;;;;29.39;37.37;96108.97;6245853;28;20035;-67
2022/06/18 07:01:57;;;;;;;;;;;;;;;29.75;36.62;96117.88;6245994;28;20461;-67
2022/06/18 07:05:00;;;;;;;;;;;;;;;29.96;36.95;96111.84;6246037;28;20384;-67
2022/06/18 07:08:01;;;;;;;;;;;;;;;30.33;35.91;96116.91;6245822;28;19932;-67
2022/06/18 07:11:07;;;;;;;;;;;;;;;30.73;35.29;96116.00;6245829;28;20055;-66
2022/06/18 07:14:11;;;;;;;;;;;;;;;31.14;35.23;96122.16;6245938;28;19921;-69
2022/06/18 07:17:16;;;;;;;;;;;;;;;31.43;34.47;96113.91;6246557;28;19948;-68
2022/06/18 07:20:21;;;;;;;;;;;;;;;31.74;34.53;96115.13;6246322;28;19928;-67
2022/06/18 07:23:23;;;;;;;;;;;;;;;32.10;34.06;96113.72;6246050;28;19928;-66
2022/06/18 07:26:26;;;;;;;;;;;;;;;32.71;33.06;96112.72;6246264;28;19931;-67
2022/06/18 07:29:30;;;;;;;;;;;;;;;34.18;31.52;96103.91;6245980;28;19936;-67
2022/06/18 07:32:31;;;;;;;;;;;;;;;35.88;29.51;96114.59;6245959;28;20438;-67
2022/06/18 07:35:35;;;;;;;;;;;;;;;36.49;28.48;96110.78;6245676;28;19925;-68
2022/06/18 07:38:36;;;;;;;;;;;;;;;37.75;27.56;96117.47;6246150;28;19921;-67
2022/06/18 07:41:41;;;;;;;;;;;;;;;41.25;23.89;96114.63;6250236;28;19921;-66
2022/06/18 07:44:44;;;;;;;;;;;;;;;43.40;22.10;96124.94;6250318;28;19929;-66
2022/06/18 07:47:51;;;;;;;;;;;;;;;43.50;22.93;96119.88;6250379;28;19921;-67
2022/06/18 07:50:52;;;;;;;;;;;;;;;43.42;22.49;96117.13;6249061;28;19925;-67
2022/06/18 07:53:57;;;;;;;;;;;;;;;42.58;22.98;96111.78;6250151;28;20207;-67
2022/06/18 07:57:01;;;;;;;;;;;;;;;42.63;23.55;96112.75;6249394;28;19921;-68
2022/06/18 08:00:04;;;;;;;;;;;;;;;42.87;22.69;96115.06;6250062;28;19928;-67
2022/06/18 08:03:13;;;;;;;;;;;;;;;43.37;21.70;96103.44;6250032;28;19927;-66
2022/06/18 08:06:16;;;;;;;;;;;;;;;45.20;20.24;96100.50;6250671;28;19928;-67
2022/06/18 08:09:17;;;;;;;;;;;;;;;47.35;17.51;96107.38;6250175;28;19928;-67
2022/06/18 08:12:22;;;;;;;;;;;;;;;50.75;16.29;96097.72;6249910;28;19925;-66
2022/06/18 08:15:23;;;;;;;;;;;;;;;53.50;13.86;96092.72;6250253;28;20285;-66
2022/06/18 08:18:29;;;;;;;;;;;;;;;54.58;12.98;96082.28;6249690;28;19920;-67
2022/06/18 08:21:41;;;;;;;;;;;;;;;54.79;12.89;96084.25;6249633;28;20027;-66
2022/06/18 08:24:45;;;;;;;;;;;;;;;52.62;13.53;96072.28;6249772;28;20300;-67
2022/06/18 08:27:51;;;;;;;;;;;;;;;51.21;14.75;96056.25;6249396;28;19921;-67
2022/06/18 08:31:14;;;;;;;;;;;;;;;51.81;13.30;96046.03;6249591;28;20308;-67
2022/06/18 08:34:20;;;;;;;;;;;;;;;51.89;12.80;96042.09;6249161;28;20399;-67
2022/06/18 08:37:28;;;;;;;;;;;;;;;51.36;11.43;96032.03;6248992;28;20381;-66
2022/06/18 08:40:37;;;;;;;;;;;;;;;50.24;12.78;96017.78;6248631;28;20274;-66
2022/06/18 08:43:42;;;;;;;;;;;;;;;51.16;12.24;96023.00;6249138;28;19925;-66
2022/06/18 08:46:57;;;;;;;;;;;;;;;52.27;11.46;96023.16;6249006;28;19921;-67
2022/06/18 08:50:03;;;;;;;;;;;;;;;52.87;11.38;96014.22;6249067;28;19921;-66
2022/06/18 08:53:29;;;;;;;;;;;;;;;53.04;10.93;96020.34;6247695;28;19921;-66
2022/06/18 08:56:32;;;;;;;;;;;;;;;51.03;11.79;96013.25;6247840;28;19975;-67
2022/06/18 08:59:42;;;;;;;;;;;;;;;47.15;14.46;95998.63;6248856;28;19951;-66
2022/06/18 09:03:05;;;;;;;;;;;;;;;44.07;16.49;95982.88;6248792;28;19921;-67
2022/06/18 09:06:18;;;;;;;;;;;;;;;43.00;17.64;95981.22;6247593;28;19920;-67
2022/06/18 09:09:40;;;;;;;;;;;;;;;43.39;16.84;95979.31;6263364;28;19920;-67
2022/06/18 09:13:10;;;;;;;;;;;;;;;43.37;17.08;95981.59;6248360;28;20375;-67
2022/06/18 09:16:13;;;;;;;;;;;;;;;40.97;19.25;95979.53;6246533;28;19921;-66
2022/06/18 09:19:20;;;;;;;;;;;;;;;38.82;21.57;95975.84;6248153;28;19921;-68
2022/06/18 09:22:21;;;;;;;;;;;;;;;37.33;23.30;95968.06;6248653;28;19927;-68
2022/06/18 09:25:26;;;;;;;;;;;;;;;38.83;21.88;95955.47;6246537;28;19921;-66
2022/06/18 09:28:37;;;;;;;;;;;;;;;42.83;17.92;95958.00;6247932;28;19921;-67
2022/06/18 09:31:40;;;;;;;;;;;;;;;45.22;15.99;95976.81;6248343;28;19921;-67
2022/06/18 09:35:07;;;;;;;;;;;;;;;44.82;16.04;95984.94;6247667;28;19925;-67
2022/06/18 09:38:16;;;;;;;;;;;;;;;43.24;17.15;95967.66;6247588;28;20355;-67
2022/06/18 09:41:21;;;;;;;;;;;;;;;42.99;17.60;95965.78;6247903;28;20396;-66
2022/06/18 09:44:45;;;;;;;;;;;;;;;44.11;16.85;95947.81;6247705;28;20388;-67
2022/06/18 09:47:47;;;;;;;;;;;;;;;45.10;15.78;95957.34;6247808;28;20245;-67
2022/06/18 09:50:55;;;;;;;;;;;;;;;43.15;17.52;95953.06;6247441;28;19924;-67
2022/06/18 09:54:00;;;;;;;;;;;;;;;41.32;18.92;95943.84;6247707;28;19983;-67
2022/06/18 09:57:11;;;;;;;;;;;;;;;42.80;17.63;95947.56;6247799;28;19921;-66
2022/06/18 10:00:15;;;;;;;;;;;;;;;44.90;16.10;95947.09;6247779;28;20300;-67
2022/06/18 10:06:52;;;;;;;;;;;;;;;44.75;15.81;95938.28;6245604;28;20019;-67
2022/06/18 10:10:00;;;;;;;;;;;;;;;42.86;17.64;95936.34;6246775;28;19928;-67
2022/06/18 10:13:06;;;;;;;;;;;;;;;42.08;18.36;95928.91;6246925;28;19923;-67
2022/06/18 10:16:12;;;;;;;;;;;;;;;41.48;18.74;95925.72;6247110;28;19921;-67
2022/06/18 10:19:31;;;;;;;;;;;;;;;40.15;19.09;95915.38;6247631;28;20315;-67
2022/06/18 10:22:41;;;;;;;;;;;;;;;37.56;21.46;95910.72;6246698;28;20384;-67
2022/06/18 10:26:03;;;;;;;;;;;;;;;35.92;23.29;95904.88;6246593;28;20315;-67
2022/06/18 10:29:26;;;;;;;;;;;;;;;36.34;23.39;95911.69;6246397;28;20380;-68
2022/06/18 10:32:27;;;;;;;;;;;;;;;36.32;23.42;95921.31;6245415;28;19925;-68
2022/06/18 10:35:40;;;;;;;;;;;;;;;34.97;25.07;95907.78;6245834;28;20321;-67
2022/06/18 10:38:44;;;;;;;;;;;;;;;34.37;25.94;95911.16;6246662;28;20479;-67
2022/06/18 10:42:00;;;;;;;;;;;;;;;33.81;26.52;95908.34;6246636;28;19917;-67
2022/06/18 10:45:13;;;;;;;;;;;;;;;34.30;26.29;95905.13;6246611;28;19924;-68
2022/06/18 10:48:31;;;;;;;;;;;;;;;35.64;24.42;95906.47;6245859;28;19920;-66
2022/06/18 10:51:39;;;;;;;;;;;;;;;36.79;22.83;95901.44;6246695;28;20423;-67
2022/06/18 10:54:41;;;;;;;;;;;;;;;36.54;23.44;95891.56;6246103;28;19921;-67
2022/06/18 10:57:45;;;;;;;;;;;;;;;36.37;23.54;95880.19;6245962;28;20431;-67
2022/06/18 11:00:54;;;;;;;;;;;;;;;36.10;23.73;95880.72;6246365;28;20059;-67
2022/06/18 11:04:03;;;;;;;;;;;;;;;34.72;24.76;95873.97;6246083;28;19921;-66
2022/06/18 11:07:08;;;;;;;;;;;;;;;33.96;25.66;95870.16;6245665;28;19920;-67
2022/06/18 11:10:21;;;;;;;;;;;;;;;33.49;26.45;95868.44;6245883;28;19920;-67
2022/06/18 11:13:29;;;;;;;;;;;;;;;33.15;26.81;95861.78;6245669;28;19927;-67
2022/06/18 11:16:40;;;;;;;;;;;;;;;32.96;27.21;95864.16;6245213;28;19933;-67
2022/06/18 11:19:48;;;;;;;;;;;;;;;33.16;26.70;95858.00;6245493;28;20388;-68
2022/06/18 11:22:59;;;;;;;;;;;;;;;33.47;27.23;95843.34;6245518;28;19933;-67
2022/06/18 11:26:05;;;;;;;;;;;;;;;32.99;30.26;95848.13;6245443;28;19920;-67
2022/06/18 11:29:19;;;;;;;;;;;;;;;32.17;31.78;95852.22;6245524;28;19925;-67
2022/06/18 11:32:29;;;;;;;;;;;;;;;31.72;33.27;95846.13;6245479;28;19920;-67
2022/06/18 11:35:36;;;;;;;;;;;;;;;31.43;33.68;95853.75;6245688;28;20307;-68
2022/06/18 11:38:38;;;;;;;;;;;;;;;31.05;35.10;95857.34;6245896;28;19921;-67
2022/06/18 11:41:45;;;;;;;;;;;;;;;30.51;35.83;95846.31;6245559;28;19921;-68
2022/06/18 11:44:46;;;;;;;;;;;;;;;30.49;36.32;95853.88;6245872;28;20015;-67
2022/06/18 11:47:51;;;;;;;;;;;;;;;30.41;36.81;95849.72;6245796;28;19967;-67
2022/06/18 11:50:55;;;;;;;;;;;;;;;30.28;37.00;95842.72;6245358;28;19921;-67
2022/06/18 11:54:13;;;;;;;;;;;;;;;30.02;37.60;95846.94;6245503;28;19921;-68
2022/06/18 11:57:14;;;;;;;;;;;;;;;29.51;38.82;95849.56;6245760;28;19927;-67
2022/06/18 12:00:20;;;;;;;;;;;;;;;29.04;39.67;95866.03;6245892;28;19921;-66
2022/06/18 12:03:39;;;;;;;;;;;;;;;28.68;40.07;95866.31;6245303;28;20019;-67
2022/06/18 12:06:50;;;;;;;;;;;;;;;28.46;40.17;95869.66;6245208;28;20215;-68
2022/06/18 12:09:56;;;;;;;;;;;;;;;28.49;39.87;95873.78;6243662;28;19971;-68
2022/06/18 12:13:02;;;;;;;;;;;;;;;28.53;39.72;95881.16;6244869;28;20418;-67
2022/06/18 12:16:08;;;;;;;;;;;;;;;28.64;39.62;95893.84;6245349;28;19921;-68
2022/06/18 12:19:20;;;;;;;;;;;;;;;28.71;39.51;95884.81;6245103;28;20384;-67
2022/06/18 12:22:21;;;;;;;;;;;;;;;28.77;39.26;95891.97;6245922;28;19928;-67
2022/06/18 12:25:31;;;;;;;;;;;;;;;28.90;40.78;95889.00;6245100;28;20456;-68
2022/06/18 12:28:41;;;;;;;;;;;;;;;28.91;39.57;95893.38;6248498;28;20401;-67
2022/06/18 12:31:48;;;;;;;;;;;;;;;28.85;39.91;95894.31;6249145;28;20150;-67
2022/06/18 12:35:00;;;;;;;;;;;;;;;28.75;40.17;95899.50;6248743;28;19921;-67
2022/06/18 12:38:04;;;;;;;;;;;;;;;28.69;40.19;95889.63;6249047;28;19928;-67
2022/06/18 12:41:15;;;;;;;;;;;;;;;28.68;40.12;95882.56;6249148;28;19920;-67
2022/06/18 12:44:30;;;;;;;;;;;;;;;28.59;39.80;95885.66;6249572;28;19921;-66
2022/06/18 12:47:43;;;;;;;;;;;;;;;28.51;39.65;95877.91;6249178;28;19928;-67
2022/06/18 12:50:52;;;;;;;;;;;;;;;28.39;39.67;95869.75;6249147;28;20388;-67
2022/06/18 12:54:06;;;;;;;;;;;;;;;28.50;39.26;95876.22;6248715;28;19921;-67
2022/06/18 12:57:20;;;;;;;;;;;;;;;28.81;38.53;95874.19;6248511;28;19921;-67
2022/06/18 13:00:53;;;;;;;;;;;;;;;29.06;37.83;95873.91;6248707;28;19921;-67
2022/06/18 13:04:03;;;;;;;;;;;;;;;29.68;36.48;95874.03;6246795;28;19928;-68
2022/06/18 13:07:12;;;;;;;;;;;;;;;29.85;35.95;95868.63;6248401;28;19921;-68
2022/06/18 13:10:26;;;;;;;;;;;;;;;29.80;36.20;95862.28;6248333;28;19921;-67
2022/06/18 13:13:50;;;;;;;;;;;;;;;29.79;36.37;95866.91;6248460;28;19921;-68
2022/06/18 13:17:05;;;;;;;;;;;;;;;29.56;36.41;95867.00;6249259;28;20382;-67
2022/06/18 13:20:19;;;;;;;;;;;;;;;29.72;36.08;95877.91;6248535;28;19921;-68
2022/06/18 13:30:29;;;;;;;;;;;;;;;30.84;34.39;95872.59;6248362;28;20304;-67
2022/06/18 13:33:45;;;;;;;;;;;;;;;30.38;35.49;95874.66;6247638;28;19927;-67
2022/06/18 13:37:05;;;;;;;;;;;;;;;30.23;35.82;95872.50;6247818;28;20424;-67
2022/06/18 13:40:06;;;;;;;;;;;;;;;30.24;36.35;95878.78;6247513;28;19921;-68
2022/06/18 13:43:20;;;;;;;;;;;;;;;30.34;36.08;95879.72;6247717;28;19921;-67
2022/06/18 13:46:30;;;;;;;;;;;;;;;30.22;35.52;95876.28;6247773;28;20015;-67
2022/06/18 13:49:35;;;;;;;;;;;;;;;29.98;35.66;95876.44;6248115;28;19920;-67
2022/06/18 13:52:40;;;;;;;;;;;;;;;29.71;35.71;95886.28;6247670;28;19921;-67
2022/06/18 13:55:42;;;;;;;;;;;;;;;29.45;36.29;95883.06;6248022;28;19927;-67
2022/06/18 13:58:47;;;;;;;;;;;;;;;29.11;36.76;95884.88;6247660;28;19925;-67
2022/06/18 14:01:53;;;;;;;;;;;;;;;28.93;36.77;95876.84;6246024;28;19932;-67
2022/06/18 14:05:00;;;;;;;;;;;;;;;28.68;37.43;95877.16;6247136;28;20031;-68
2022/06/18 14:08:04;;;;;;;;;;;;;;;28.31;38.11;95877.38;6247321;28;19936;-67
2022/06/18 14:11:06;;;;;;;;;;;;;;;28.12;38.57;95880.22;6247041;28;19967;-67
2022/06/18 14:14:24;;;;;;;;;;;;;;;27.60;38.97;95871.88;6246716;28;19969;-67
2022/06/18 14:17:36;;;;;;;;;;;;;;;27.45;39.17;95871.47;6247228;28;20011;-67
2022/06/18 14:20:52;;;;;;;;;;;;;;;27.36;39.23;95864.75;6247323;28;19954;-67
2022/06/18 14:23:58;;;;;;;;;;;;;;;27.20;39.93;95869.72;6246989;28;19921;-67
2022/06/18 14:26:59;;;;;;;;;;;;;;;26.93;40.25;95868.41;6246862;28;19921;-67
2022/06/18 14:30:03;;;;;;;;;;;;;;;26.61;40.18;95868.56;6246939;28;19925;-67
2022/06/18 14:33:15;;;;;;;;;;;;;;;26.35;40.37;95867.75;6246892;28;19921;-66
2022/06/18 14:36:23;;;;;;;;;;;;;;;26.19;40.55;95866.47;6246483;28;19921;-67
2022/06/18 14:39:28;;;;;;;;;;;;;;;26.09;40.66;95865.31;6246326;28;20270;-68
2022/06/18 14:42:43;;;;;;;;;;;;;;;26.01;40.97;95873.69;6246205;28;20011;-67
2022/06/18 14:45:44;;;;;;;;;;;;;;;25.92;40.68;95871.25;6246810;28;19921;-67
2022/06/18 14:48:45;;;;;;;;;;;;;;;25.84;41.22;95874.22;6245826;28;19921;-67
2022/06/18 14:51:54;;;;;;;;;;;;;;;25.81;41.16;95877.34;6245935;28;20410;-67
2022/06/18 14:55:16;;;;;;;;;;;;;;;25.72;41.16;95881.34;6245975;28;19921;-67
2022/06/18 14:58:23;;;;;;;;;;;;;;;25.66;41.32;95880.34;6245660;28;19921;-67
2022/06/18 15:01:38;;;;;;;;;;;;;;;25.61;41.40;95882.06;6245820;28;19920;-67
2022/06/18 15:04:39;;;;;;;;;;;;;;;25.56;41.37;95882.69;6246494;28;19925;-68
2022/06/18 15:07:40;;;;;;;;;;;;;;;25.54;41.18;95884.81;6246036;28;20392;-68
2022/06/18 15:10:47;;;;;;;;;;;;;;;25.50;42.36;95889.78;6245635;28;19921;-68
2022/06/18 15:13:49;;;;;;;;;;;;;;;25.48;41.47;95889.19;6244150;28;20304;-68
2022/06/18 15:23:22;;;;;;;;;;;;;;;25.01;45.04;95895.84;6245773;28;19925;-67
2022/06/18 15:26:25;;;;;;;;;;;;;;;24.91;46.50;95904.38;6245607;28;19921;-68
2022/06/18 15:29:31;;;;;;;;;;;;;;;24.63;46.84;95905.50;6245495;28;19921;-68
2022/06/18 15:32:40;;;;;;;;;;;;;;;24.49;48.06;95897.69;6245648;28;19927;-67
2022/06/18 15:35:43;;;;;;;;;;;;;;;24.28;48.17;95896.00;6245869;28;19921;-67
2022/06/18 15:38:54;;;;;;;;;;;;;;;24.13;48.98;95880.94;6245314;28;19928;-68
2022/06/18 15:41:56;;;;;;;;;;;;;;;23.99;49.08;95892.72;6245284;28;19960;-68
2022/06/18 15:45:02;;;;;;;;;;;;;;;23.87;49.92;95883.66;6244074;28;20014;-68
2022/06/18 15:48:16;;;;;;;;;;;;;;;23.67;50.00;95889.81;6245639;28;19921;-67
2022/06/18 15:51:24;;;;;;;;;;;;;;;23.57;51.04;95891.22;6245384;28;19921;-67
2022/06/18 15:54:41;;;;;;;;;;;;;;;23.48;51.84;95896.78;6245293;28;20400;-69
2022/06/18 15:57:43;;;;;;;;;;;;;;;23.29;52.03;95895.72;6245586;28;19921;-67
2022/06/18 16:00:44;;;;;;;;;;;;;;;23.25;53.27;95889.09;6246050;28;19924;-67
2022/06/18 16:03:51;;;;;;;;;;;;;;;23.11;53.32;95876.69;6249886;28;19921;-68
2022/06/18 16:06:56;;;;;;;;;;;;;;;22.97;53.54;95877.69;6250131;28;20015;-67
2022/06/18 16:09:59;;;;;;;;;;;;;;;22.93;54.13;95882.59;6250280;28;20389;-67
2022/06/18 16:13:11;;;;;;;;;;;;;;;22.74;54.47;95889.53;6249892;28;20028;-68
2022/06/18 16:16:19;;;;;;;;;;;;;;;22.67;54.72;95891.34;6249476;28;19931;-68
2022/06/18 16:19:23;;;;;;;;;;;;;;;22.50;55.33;95890.84;6250239;28;19920;-67
2022/06/18 16:22:28;;;;;;;;;;;;;;;22.50;55.70;95898.88;6249778;28;19921;-68
2022/06/18 16:25:38;;;;;;;;;;;;;;;22.46;56.29;95899.47;6249949;28;19928;-67
2022/06/18 16:28:40;;;;;;;;;;;;;;;22.38;56.50;95903.97;6249957;28;19928;-67
2022/06/18 16:31:44;;;;;;;;;;;;;;;22.17;56.48;95898.66;6249205;28;19921;-68
2022/06/18 16:34:45;;;;;;;;;;;;;;;22.17;57.04;95894.16;6249630;28;20016;-67
2022/06/18 16:37:51;;;;;;;;;;;;;;;22.05;57.16;95900.19;6249174;28;19921;-67
2022/06/18 16:41:10;;;;;;;;;;;;;;;22.08;57.79;95900.66;6249799;28;19925;-67
2022/06/18 16:44:14;;;;;;;;;;;;;;;21.96;57.79;95902.19;6249218;28;19921;-67